UNNT METAR and TAF | Updated Today

UNNT METAR

Tolmachevo Airport

Observation time: 29 min. ago

UNNT 251930Z 02003MPS CAVOK 16/10 Q1014 R25/090070 R34/////// NOSIG RMK QFE751/1001

Need help? Read our tutorial on how to read METARs or read the parsed version below.

Tolmachevo Airport (UNNT) METAR

  • Weather conditions on Wed, 25 May 2022 19:30:00 +0000 (29 min. ago):
  • Present conditions: Dry
  • Clouds: Clear skies
  • Visibility: Greater than 10 km
  • Wind: 20 degrees at 3 knots
  • Temperature: 16 celsius
  • Dew point: 10 celsius
  • Pressure: 1014 millibars
  • Remarks: QFE751/1001


Useful to know...

UNNT TAF

Tolmachevo Airport

TAF UNNT 251700Z 2518/2618 03003G08MPS 8000 SCT040 BECMG 2601/2604 04006G13MPS BECMG 2615/2617 03003G08MPS
Observation time: 2:59 hr. ago
Need help? Read our tutorial on how to read TAFs or read the parsed version below.

Parsed version of TAF for Tolmachevo Airport (UNNT)

  • From 25 May at 18:00 UTC, to day 26 of the month at 18:00 UTC
  • Clouds: Scattered at 1219 meters
  • Visibility: 8000 meters
  • Wind: 30 degrees at 3
  • Expected to arise soon, from 26 May at 01:00 UTC, to day 26 of the month at 04:00 UTC
  • Wind: 40 degrees at 6
  • Expected to arise soon, from 26 May at 15:00 UTC, to day 26 of the month at 17:00 UTC
  • Wind: 30 degrees at 3

Airports near UNNT